Time;durP1;ratioP1;P1;durP2;ratioP2;P2;SDS_P1;SDS_P2;PMS_P1;PMS_P2;Temp;Humidity;BMP_temperature;BMP_pressure;BME280_temperature;BME280_humidity;BME280_pressure;Samples;Min_cycle;Max_cycle;Signal;HPM_P1;HPM_P2
2022/01/30 00:02:17;;;;;;;58.05;30.95;;;;;;;5.14;62.25;100357.31;5050016;28;20116;-49
2022/01/30 00:04:43;;;;;;;91.90;62.78;;;;;;;5.11;63.57;100358.38;5050012;28;20032;-48
2022/01/30 00:07:09;;;;;;;238.05;186.77;;;;;;;5.16;64.29;100358.00;5033106;28;20388;-49
2022/01/30 00:09:34;;;;;;;156.68;125.57;;;;;;;5.45;64.47;100357.41;5032333;28;20402;-49
2022/01/30 00:12:03;;;;;;;368.27;314.15;;;;;;;5.78;64.08;100349.41;5049878;28;20033;-48
2022/01/30 00:14:33;;;;;;;494.42;425.77;;;;;;;5.97;64.40;100347.91;5049908;28;20036;-48
2022/01/30 00:17:09;;;;;;;87.70;58.85;;;;;;;6.26;63.67;100352.41;5033408;28;20527;-49
2022/01/30 00:19:48;;;;;;;64.50;37.42;;;;;;;6.48;62.96;100347.03;5056044;28;20040;-49
2022/01/30 00:22:25;;;;;;;62.42;32.78;;;;;;;6.49;62.03;100346.03;5092217;28;20036;-48
2022/01/30 00:25:05;;;;;;;58.50;30.55;;;;;;;6.36;61.73;100348.91;5092250;28;20108;-48
2022/01/30 00:27:34;;;;;;;52.33;28.98;;;;;;;6.24;61.23;100336.06;5090845;28;20379;-49
2022/01/30 00:30:02;;;;;;;54.65;30.10;;;;;;;6.04;61.92;100351.66;5090757;28;20020;-49
2022/01/30 00:32:28;;;;;;;60.75;30.73;;;;;;;5.86;62.52;100342.75;5092104;28;20020;-49
2022/01/30 00:34:53;;;;;;;58.65;31.27;;;;;;;5.87;61.94;100340.00;5092026;28;20042;-47
2022/01/30 00:37:19;;;;;;;63.78;31.15;;;;;;;5.85;62.51;100328.88;5091997;28;20101;-48
2022/01/30 00:39:45;;;;;;;70.53;39.10;;;;;;;5.73;62.22;100332.50;5090616;28;20406;-48
2022/01/30 00:42:11;;;;;;;63.55;30.98;;;;;;;5.61;62.44;100326.53;5091721;28;20437;-49
2022/01/30 00:44:37;;;;;;;59.72;30.58;;;;;;;5.45;63.53;100326.16;5092240;28;20539;-49
2022/01/30 00:47:04;;;;;;;66.82;31.60;;;;;;;5.26;63.06;100316.44;5091802;28;20099;-48
2022/01/30 00:49:30;;;;;;;63.00;30.45;;;;;;;5.11;64.31;100318.50;5091894;28;20382;-48
2022/01/30 00:51:56;;;;;;;69.57;33.38;;;;;;;5.13;64.34;100324.41;5091796;28;20058;-48
2022/01/30 00:54:21;;;;;;;64.00;31.08;;;;;;;4.98;64.49;100308.28;5091814;28;20042;-49
2022/01/30 00:56:47;;;;;;;57.47;31.25;;;;;;;4.95;65.59;100313.72;5091772;28;20020;-48
2022/01/30 00:59:13;;;;;;;62.30;30.50;;;;;;;4.95;65.48;100311.97;5090511;28;20472;-47
2022/01/30 01:01:38;;;;;;;64.10;29.75;;;;;;;4.98;65.95;100313.47;5091704;28;20027;-49
2022/01/30 01:04:04;;;;;;;67.43;32.83;;;;;;;4.97;65.46;100297.06;5091743;28;20107;-48
2022/01/30 01:06:30;;;;;;;63.25;29.85;;;;;;;5.00;65.60;100295.97;5090416;28;20043;-48
2022/01/30 01:09:00;;;;;;;55.80;28.23;;;;;;;4.98;65.70;100292.66;5091605;28;20497;-48
2022/01/30 01:11:56;;;;;;;56.20;29.73;;;;;;;4.96;65.74;100297.16;5091646;28;20028;-48
2022/01/30 01:25:09;;;;;;;48.40;26.10;;;;;;;5.12;65.76;100287.16;5095621;28;20035;-48
2022/01/30 01:27:34;;;;;;;50.13;28.73;;;;;;;5.09;65.60;100294.38;5095446;28;20020;-48
2022/01/30 01:30:00;;;;;;;51.22;26.40;;;;;;;5.10;66.04;100285.66;5094042;28;20027;-49
2022/01/30 01:32:27;;;;;;;49.53;27.95;;;;;;;5.06;65.67;100281.63;5094100;28;20024;-49
2022/01/30 01:34:52;;;;;;;47.70;25.63;;;;;;;5.06;65.99;100276.44;5095365;28;20026;-49
2022/01/30 01:37:18;;;;;;;50.85;26.48;;;;;;;4.99;66.54;100278.72;5095286;28;20106;-48
2022/01/30 01:39:44;;;;;;;53.08;27.70;;;;;;;4.95;66.54;100275.53;5095288;28;20099;-48
2022/01/30 01:42:10;;;;;;;60.88;29.15;;;;;;;5.05;66.28;100282.56;5095032;28;20539;-48
2022/01/30 01:44:44;;;;;;;59.50;30.38;;;;;;;5.09;66.09;100273.56;5093873;28;20024;-49
2022/01/30 01:47:11;;;;;;;58.50;28.65;;;;;;;5.07;66.42;100271.13;5095128;28;20031;-48
2022/01/30 01:49:38;;;;;;;55.75;27.27;;;;;;;5.13;66.17;100261.94;5093772;28;20107;-48
2022/01/30 01:54:48;;;;;;;55.83;31.00;;;;;;;5.24;65.82;100250.69;5095003;28;20024;-50
2022/01/30 01:57:15;;;;;;;58.72;29.55;;;;;;;5.42;65.60;100253.53;5095232;28;20375;-49
2022/01/30 01:59:41;;;;;;;53.55;28.33;;;;;;;5.55;65.37;100248.94;5093607;28;20441;-49
2022/01/30 02:02:07;;;;;;;58.50;29.27;;;;;;;5.64;65.58;100239.53;5093814;28;20036;-48
2022/01/30 02:04:33;;;;;;;58.33;29.92;;;;;;;5.77;64.98;100238.34;5093479;28;20047;-48
2022/01/30 02:07:19;;;;;;;55.92;29.63;;;;;;;5.89;64.82;100248.66;5094624;28;20478;-48
2022/01/30 02:09:45;;;;;;;66.82;34.47;;;;;;;5.69;64.55;100232.13;5094636;28;20028;-49
2022/01/30 02:12:17;;;;;;;63.25;33.05;;;;;;;5.37;64.68;100233.91;5094650;28;20046;-47
2022/01/30 02:15:11;;;;;;;65.28;32.88;;;;;;;5.40;65.77;100238.03;5094662;28;20524;-48
2022/01/30 02:25:57;;;;;;;66.28;33.80;;;;;;;5.52;64.59;100213.56;5094488;28;20074;-48
2022/01/30 02:28:25;;;;;;;66.53;36.22;;;;;;;5.45;65.33;100220.22;5094303;28;20032;-49
2022/01/30 02:31:05;;;;;;;66.40;32.35;;;;;;;5.16;65.59;100223.50;5094241;28;20052;-48
2022/01/30 02:33:31;;;;;;;73.20;34.80;;;;;;;5.05;66.57;100223.59;5093413;28;20489;-49
2022/01/30 02:35:56;;;;;;;72.28;34.03;;;;;;;4.94;66.59;100227.03;5094188;28;20066;-47
2022/01/30 02:38:23;;;;;;;65.75;31.75;;;;;;;4.92;66.81;100226.34;5094159;28;20052;-49
2022/01/30 02:40:51;;;;;;;63.97;31.55;;;;;;;5.06;67.28;100224.41;5094084;28;20498;-50
2022/01/30 02:43:21;;;;;;;61.70;30.75;;;;;;;5.24;67.75;100215.06;5092507;28;20131;-48
2022/01/30 02:46:00;;;;;;;55.13;27.27;;;;;;;5.55;66.44;100213.31;5093988;28;20412;-48
2022/01/30 02:48:33;;;;;;;68.30;33.20;;;;;;;5.60;65.80;100213.72;5093958;28;20020;-49
2022/01/30 02:51:11;;;;;;;65.10;32.17;;;;;;;5.55;66.39;100202.91;5093999;28;20031;-49
2022/01/30 02:53:41;;;;;;;65.00;30.77;;;;;;;5.68;66.59;100207.88;5093910;28;20031;-48
2022/01/30 02:56:07;;;;;;;64.72;29.20;;;;;;;5.74;65.87;100204.75;5093834;28;20570;-48
2022/01/30 02:58:33;;;;;;;66.90;32.50;;;;;;;5.68;66.25;100209.66;5093754;28;20059;-48
2022/01/30 03:00:59;;;;;;;91.03;56.92;;;;;;;5.70;66.83;100205.97;5093704;28;20035;-48
2022/01/30 03:03:25;;;;;;;74.65;33.55;;;;;;;5.76;67.08;100215.84;5093626;28;20043;-49
2022/01/30 03:05:50;;;;;;;66.60;33.55;;;;;;;5.87;66.90;100211.50;5093573;28;20023;-49
2022/01/30 03:08:16;;;;;;;84.68;33.58;;;;;;;5.84;66.70;100211.78;5092204;28;20020;-49
2022/01/30 03:10:42;;;;;;;68.32;34.20;;;;;;;5.78;66.93;100207.91;5093500;28;20404;-49
2022/01/30 03:13:08;;;;;;;91.85;42.60;;;;;;;5.85;67.48;100210.81;5093521;28;20024;-48
2022/01/30 03:15:35;;;;;;;70.63;35.50;;;;;;;5.90;67.90;100213.84;5093454;28;20020;-48
2022/01/30 03:18:01;;;;;;;79.97;36.53;;;;;;;5.86;67.25;100215.09;5092073;28;20444;-48
2022/01/30 03:20:27;;;;;;;82.05;36.83;;;;;;;5.80;66.72;100208.63;5092003;28;20024;-49
2022/01/30 03:22:53;;;;;;;100.28;62.53;;;;;;;5.84;67.18;100203.97;5093291;28;20106;-48
2022/01/30 03:25:19;;;;;;;548.88;491.10;;;;;;;5.88;66.73;100192.31;5093190;28;20094;-49
2022/01/30 03:27:50;;;;;;;106.30;54.78;;;;;;;5.95;66.23;100196.06;5091779;28;20028;-48
2022/01/30 03:30:24;;;;;;;84.35;39.20;;;;;;;5.96;66.02;100192.50;5093134;28;20027;-48
2022/01/30 03:32:50;;;;;;;84.18;36.50;;;;;;;5.94;65.93;100189.19;5093170;28;20474;-49
2022/01/30 03:35:15;;;;;;;92.78;37.78;;;;;;;6.10;65.75;100188.72;5091737;28;20031;-49
2022/01/30 03:37:41;;;;;;;79.80;36.63;;;;;;;6.15;65.06;100186.50;5091705;28;20023;-47
2022/01/30 03:40:07;;;;;;;74.43;38.60;;;;;;;5.98;65.41;100193.22;5093019;28;20102;-48
2022/01/30 03:42:33;;;;;;;74.88;37.88;;;;;;;5.89;65.34;100191.34;5092555;28;20040;-48
2022/01/30 03:44:59;;;;;;;80.60;37.78;;;;;;;5.83;65.80;100190.09;5092676;28;20066;-48
2022/01/30 03:47:26;;;;;;;89.60;38.53;;;;;;;5.98;65.88;100178.38;5092732;28;20024;-48
2022/01/30 03:49:52;;;;;;;86.25;39.50;;;;;;;6.00;65.76;100180.88;5092773;28;20091;-48
2022/01/30 03:52:18;;;;;;;83.50;38.15;;;;;;;6.00;65.71;100181.69;5092776;28;20024;-48
2022/01/30 03:54:44;;;;;;;102.70;38.85;;;;;;;5.93;65.74;100190.13;5091343;28;20023;-48
2022/01/30 03:57:10;;;;;;;78.68;36.92;;;;;;;5.84;66.48;100185.72;5092639;28;20020;-49
2022/01/30 03:59:36;;;;;;;91.72;42.00;;;;;;;5.80;66.32;100190.38;5091279;28;20100;-48
2022/01/30 04:02:02;;;;;;;77.72;39.53;;;;;;;5.72;67.60;100190.22;5092598;28;20527;-48
2022/01/30 04:04:28;;;;;;;93.03;38.05;;;;;;;5.76;67.90;100179.38;5092488;28;20511;-48
2022/01/30 04:06:57;;;;;;;78.57;37.67;;;;;;;5.88;67.31;100187.13;5092414;28;20031;-48
2022/01/30 04:09:24;;;;;;;79.75;38.10;;;;;;;5.96;67.60;100187.31;5092502;28;20015;-48
2022/01/30 04:11:50;;;;;;;81.28;38.22;;;;;;;6.00;67.84;100184.28;5092458;28;20450;-48
2022/01/30 04:14:16;;;;;;;75.25;38.13;;;;;;;6.00;67.05;100186.91;5092358;28;20146;-48
2022/01/30 04:16:41;;;;;;;87.55;39.97;;;;;;;6.06;67.57;100182.94;5092323;28;20028;-48
2022/01/30 04:19:07;;;;;;;78.50;36.83;;;;;;;6.15;67.18;100176.09;5092368;28;20113;-48
2022/01/30 04:21:33;;;;;;;87.00;41.38;;;;;;;6.23;67.52;100180.63;5091013;28;20028;-49
2022/01/30 04:23:59;;;;;;;82.00;37.17;;;;;;;6.26;67.85;100185.56;5090974;28;20035;-48
2022/01/30 04:26:25;;;;;;;79.25;38.65;;;;;;;6.31;67.59;100180.78;5092213;28;20023;-47
2022/01/30 04:28:51;;;;;;;76.88;36.72;;;;;;;6.33;67.30;100174.44;5092097;28;20114;-47
2022/01/30 04:31:17;;;;;;;92.57;38.45;;;;;;;6.26;67.07;100170.75;5092163;28;20397;-49
2022/01/30 04:33:43;;;;;;;71.32;37.15;;;;;;;6.14;67.88;100169.25;5090794;28;20409;-47
2022/01/30 04:36:13;;;;;;;75.13;39.72;;;;;;;6.11;67.36;100169.50;5092051;28;20440;-47
2022/01/30 04:52:35;;;;;;;83.80;38.13;;;;;;;5.72;67.78;100167.59;5091905;28;20031;-47
2022/01/30 05:08:18;;;;;;;72.13;35.25;;;;;;;5.49;67.07;100151.31;5098394;28;20524;-47
2022/01/30 05:10:44;;;;;;;93.25;51.75;;;;;;;5.43;67.77;100157.03;5098454;28;20024;-47
2022/01/30 05:13:14;;;;;;;67.85;33.33;;;;;;;5.27;68.07;100148.91;5098432;28;20393;-47
2022/01/30 05:15:43;;;;;;;80.20;34.45;;;;;;;4.88;68.70;100152.09;5098470;28;20024;-47
2022/01/30 05:18:10;;;;;;;63.17;32.40;;;;;;;4.79;70.04;100150.28;5097088;28;20020;-48
2022/01/30 05:20:36;;;;;;;58.17;28.30;;;;;;;5.08;69.89;100145.25;5097018;28;20524;-47
2022/01/30 05:23:03;;;;;;;56.35;30.30;;;;;;;5.24;69.61;100141.38;5098326;28;20095;-48
2022/01/30 05:25:29;;;;;;;67.70;30.15;;;;;;;5.45;69.26;100142.13;5096980;28;20024;-48
2022/01/30 05:27:55;;;;;;;69.03;32.28;;;;;;;5.52;68.94;100148.47;5098183;28;20012;-48
2022/01/30 05:30:21;;;;;;;66.55;31.52;;;;;;;5.57;69.39;100137.66;5096870;28;20028;-48
2022/01/30 05:32:47;;;;;;;68.57;33.92;;;;;;;5.68;69.36;100144.56;5098238;28;20020;-47
2022/01/30 05:35:14;;;;;;;70.35;36.97;;;;;;;5.74;69.47;100134.41;5098514;28;20028;-47
2022/01/30 05:37:42;;;;;;;68.45;33.80;;;;;;;5.75;68.55;100132.63;5098164;28;20016;-47
2022/01/30 05:40:10;;;;;;;67.53;33.15;;;;;;;5.67;68.21;100137.69;5098399;28;20443;-48
2022/01/30 05:42:37;;;;;;;64.85;34.05;;;;;;;5.69;69.16;100133.97;5097934;28;20080;-47
2022/01/30 05:45:18;;;;;;;62.05;33.20;;;;;;;5.74;68.72;100131.81;5096812;28;20494;-48
2022/01/30 05:48:14;;;;;;;73.68;33.53;;;;;;;5.83;67.80;100139.78;5098079;28;20115;-47
2022/01/30 05:50:33;;;;;;;71.60;38.90;;;;;;;5.74;68.63;100137.03;5097603;28;20050;-46
2022/01/30 05:52:58;;;;;;;66.57;32.05;;;;;;;5.67;67.81;100141.09;5098075;28;20020;-47
2022/01/30 05:55:24;;;;;;;63.67;31.35;;;;;;;5.65;67.02;100135.19;5098017;28;20085;-47
2022/01/30 05:57:50;;;;;;;63.03;36.47;;;;;;;5.50;67.89;100139.16;5096763;28;20114;-47
2022/01/30 06:00:16;;;;;;;65.88;31.65;;;;;;;5.47;68.35;100137.59;5097971;28;20031;-47
2022/01/30 06:02:43;;;;;;;68.78;34.25;;;;;;;5.64;68.44;100135.34;5096652;28;20081;-47
2022/01/30 06:05:09;;;;;;;58.75;31.58;;;;;;;5.84;68.37;100134.44;5097915;28;20051;-47
2022/01/30 06:07:45;;;;;;;69.72;31.52;;;;;;;5.95;67.75;100136.94;5094065;28;20551;-47
2022/01/30 06:10:11;;;;;;;59.53;32.08;;;;;;;6.02;67.49;100137.25;5094776;28;20020;-47
2022/01/30 06:12:36;;;;;;;58.58;31.55;;;;;;;6.01;66.64;100146.00;5094678;28;20034;-47
2022/01/30 06:15:02;;;;;;;65.97;32.92;;;;;;;5.93;67.05;100148.44;5094627;28;20103;-48
2022/01/30 06:17:28;;;;;;;61.97;32.30;;;;;;;5.83;66.87;100148.41;5094553;28;20478;-46
2022/01/30 06:19:54;;;;;;;62.42;32.38;;;;;;;5.77;67.25;100143.75;5094595;28;20012;-46
2022/01/30 06:22:19;;;;;;;61.47;31.10;;;;;;;5.82;67.64;100144.19;5094474;28;20024;-47
2022/01/30 06:24:45;;;;;;;61.92;31.52;;;;;;;5.90;67.20;100154.75;5094425;28;20020;-47
2022/01/30 06:27:11;;;;;;;62.38;32.53;;;;;;;5.88;66.94;100151.47;5094344;28;20023;-48
2022/01/30 06:29:36;;;;;;;67.50;34.00;;;;;;;5.90;68.06;100146.13;5094267;28;20074;-47
2022/01/30 06:32:02;;;;;;;71.93;35.60;;;;;;;6.05;68.54;100151.78;5094257;28;20021;-48
2022/01/30 06:34:28;;;;;;;71.18;36.22;;;;;;;6.23;68.72;100150.16;5094263;28;20024;-47
2022/01/30 06:36:55;;;;;;;66.22;33.30;;;;;;;6.29;67.91;100148.81;5094187;28;20020;-47
2022/01/30 06:39:21;;;;;;;67.55;33.17;;;;;;;6.30;68.44;100159.09;5092871;28;20021;-47
2022/01/30 06:41:47;;;;;;;86.72;34.88;;;;;;;6.17;66.73;100145.50;5092594;28;20037;-47
2022/01/30 06:44:12;;;;;;;69.38;32.15;;;;;;;6.04;67.58;100156.19;5094132;28;20081;-46
2022/01/30 06:46:38;;;;;;;66.05;33.78;;;;;;;6.17;68.15;100155.91;5092745;28;20028;-47
2022/01/30 06:49:04;;;;;;;66.82;32.13;;;;;;;6.20;67.46;100151.25;5093939;28;20081;-47
2022/01/30 06:51:30;;;;;;;64.78;33.45;;;;;;;6.25;67.09;100142.22;5093923;28;20020;-46
2022/01/30 06:53:56;;;;;;;115.68;55.58;;;;;;;6.39;67.33;100139.19;5093907;28;20028;-48
2022/01/30 06:56:21;;;;;;;136.65;38.70;;;;;;;6.35;66.09;100135.22;5093780;28;20027;-47
2022/01/30 06:58:47;;;;;;;74.22;34.20;;;;;;;6.23;65.94;100144.13;5093857;28;20039;-46
2022/01/30 07:01:13;;;;;;;197.82;34.88;;;;;;;6.27;66.25;100141.09;5093696;28;20024;-47
2022/01/30 07:03:38;;;;;;;67.03;33.00;;;;;;;6.20;66.14;100137.41;5093712;28;20060;-47
2022/01/30 07:06:04;;;;;;;72.90;31.98;;;;;;;6.13;66.59;100138.91;5093568;28;20440;-47
2022/01/30 07:08:30;;;;;;;65.05;31.50;;;;;;;5.95;65.96;100142.16;5093589;28;20094;-46
2022/01/30 07:10:56;;;;;;;64.30;32.38;;;;;;;5.84;66.97;100136.22;5092282;28;20095;-47
2022/01/30 07:13:21;;;;;;;64.57;30.65;;;;;;;5.91;66.94;100142.53;5093490;28;20023;-47
2022/01/30 07:15:47;;;;;;;67.78;33.95;;;;;;;5.97;67.28;100139.44;5093718;28;20031;-47
2022/01/30 07:18:13;;;;;;;68.68;37.13;;;;;;;6.10;67.50;100147.00;5092893;28;20081;-47
2022/01/30 07:20:39;;;;;;;65.03;29.95;;;;;;;6.18;66.31;100144.53;5093305;28;20072;-47
2022/01/30 07:23:04;;;;;;;73.38;32.42;;;;;;;6.17;66.86;100148.91;5093316;28;20031;-47
2022/01/30 07:25:30;;;;;;;63.17;31.60;;;;;;;6.20;67.05;100146.06;5093274;28;20069;-47
2022/01/30 07:27:56;;;;;;;69.72;32.45;;;;;;;6.28;66.50;100153.19;5093153;28;20028;-47
2022/01/30 07:30:22;;;;;;;77.07;31.38;;;;;;;6.18;66.11;100147.97;5093111;28;20031;-46
2022/01/30 07:32:47;;;;;;;70.93;36.50;;;;;;;6.07;66.41;100145.47;5091791;28;20031;-48
2022/01/30 07:35:13;;;;;;;65.13;29.15;;;;;;;6.17;66.21;100150.72;5093002;28;20025;-46
2022/01/30 07:37:40;;;;;;;66.00;31.23;;;;;;;6.30;66.51;100153.88;5093100;28;20054;-46
2022/01/30 07:40:07;;;;;;;63.95;30.90;;;;;;;6.41;66.51;100142.50;5093007;28;20374;-47
2022/01/30 07:42:33;;;;;;;130.00;93.53;;;;;;;6.46;66.03;100147.28;5092751;28;20141;-47
2022/01/30 07:45:00;;;;;;;95.95;53.08;;;;;;;6.47;65.96;100146.34;5092933;28;20031;-46
2022/01/30 07:47:25;;;;;;;125.75;83.00;;;;;;;6.51;65.92;100148.53;5092817;28;20398;-47
2022/01/30 07:49:52;;;;;;;77.45;42.55;;;;;;;6.49;65.69;100149.63;5092788;28;20104;-47
2022/01/30 07:52:21;;;;;;;65.47;32.90;;;;;;;6.53;66.01;100151.81;5092756;28;20085;-47
2022/01/30 07:54:48;;;;;;;63.28;31.17;;;;;;;6.64;65.72;100157.84;5091409;28;20153;-47
2022/01/30 07:57:14;;;;;;;68.75;31.70;;;;;;;6.90;65.80;100158.94;5092650;28;20371;-47
2022/01/30 07:59:43;;;;;;;64.55;29.73;;;;;;;6.88;64.64;100158.25;5092863;28;20038;-46
2022/01/30 08:02:09;;;;;;;63.65;31.48;;;;;;;6.96;64.90;100162.75;5092553;28;20028;-47
2022/01/30 08:04:35;;;;;;;66.95;32.55;;;;;;;7.02;65.02;100162.19;5092548;28;20020;-48
2022/01/30 08:07:02;;;;;;;68.20;32.42;;;;;;;6.92;63.95;100167.44;5092435;28;20034;-47
2022/01/30 08:09:28;;;;;;;68.63;32.42;;;;;;;6.87;64.27;100164.41;5092474;28;20523;-47
2022/01/30 08:11:55;;;;;;;66.00;34.75;;;;;;;6.95;64.53;100167.16;5092479;28;20496;-47
2022/01/30 08:14:20;;;;;;;73.35;34.33;;;;;;;6.99;64.31;100165.09;5092464;28;20059;-47
2022/01/30 08:16:46;;;;;;;76.35;32.15;;;;;;;6.96;63.24;100158.38;5092402;28;20055;-46
2022/01/30 08:19:12;;;;;;;75.20;31.38;;;;;;;7.02;63.80;100162.19;5092314;28;20107;-47
2022/01/30 08:21:37;;;;;;;68.43;33.10;;;;;;;7.06;63.15;100153.09;5092254;28;20024;-47
2022/01/30 08:24:03;;;;;;;67.72;31.73;;;;;;;7.14;63.29;100152.41;5092380;28;20027;-47
2022/01/30 08:26:29;;;;;;;67.00;32.72;;;;;;;7.31;63.36;100151.69;5092211;28;20098;-47
2022/01/30 08:28:55;;;;;;;66.25;31.83;;;;;;;7.39;63.23;100143.94;5092083;28;20472;-48
2022/01/30 08:31:20;;;;;;;57.13;30.75;;;;;;;7.38;63.33;100144.09;5091236;28;20479;-48
2022/01/30 08:33:46;;;;;;;69.78;31.13;;;;;;;7.55;62.88;100148.56;5092137;28;20024;-46
2022/01/30 08:36:12;;;;;;;62.00;32.35;;;;;;;7.59;62.48;100149.91;5092011;28;20028;-47
2022/01/30 08:38:38;;;;;;;71.25;32.17;;;;;;;7.71;62.29;100149.72;5090764;28;20085;-47
2022/01/30 08:41:04;;;;;;;66.07;34.35;;;;;;;7.74;62.11;100157.25;5091973;28;20024;-47
2022/01/30 08:43:31;;;;;;;68.68;32.97;;;;;;;7.77;61.89;100157.81;5091864;28;20046;-48
2022/01/30 08:45:56;;;;;;;61.60;31.63;;;;;;;7.82;62.64;100153.94;5091982;28;20051;-47
2022/01/30 08:48:22;;;;;;;62.50;31.20;;;;;;;7.95;62.12;100157.03;5091826;28;20043;-47
2022/01/30 08:50:50;;;;;;;66.43;33.13;;;;;;;7.97;62.27;100160.31;5090584;28;20046;-48
2022/01/30 08:53:16;;;;;;;57.95;29.52;;;;;;;8.14;61.91;100153.44;5091840;28;20149;-48
2022/01/30 08:55:42;;;;;;;63.80;32.35;;;;;;;8.29;61.04;100157.22;5090550;28;20077;-48
2022/01/30 08:58:08;;;;;;;63.08;33.55;;;;;;;8.29;60.51;100157.22;5091860;28;20436;-48
2022/01/30 09:00:39;;;;;;;57.75;30.10;;;;;;;8.22;61.18;100155.34;5090520;28;20032;-48
2022/01/30 09:03:06;;;;;;;60.17;33.17;;;;;;;8.24;61.09;100156.00;5090452;28;20054;-48
2022/01/30 09:05:32;;;;;;;58.60;30.48;;;;;;;8.28;60.99;100157.34;5090422;28;20616;-48
2022/01/30 09:07:59;;;;;;;59.08;29.02;;;;;;;8.38;60.37;100153.69;5090377;28;20020;-47
2022/01/30 09:10:26;;;;;;;63.78;30.95;;;;;;;8.26;60.26;100157.50;5091732;28;20028;-48
2022/01/30 09:12:51;;;;;;;59.75;30.65;;;;;;;8.20;59.86;100164.13;5091833;28;20521;-49
2022/01/30 09:15:18;;;;;;;61.75;31.52;;;;;;;8.20;60.39;100161.53;5091704;28;20027;-49
2022/01/30 09:17:44;;;;;;;68.95;32.58;;;;;;;8.33;60.61;100163.78;5091665;28;20028;-48
2022/01/30 09:20:11;;;;;;;77.68;34.95;;;;;;;8.33;60.00;100162.94;5091679;28;20104;-49
2022/01/30 09:22:38;;;;;;;67.30;32.20;;;;;;;8.22;60.39;100171.03;5091901;28;20025;-49
2022/01/30 09:25:06;;;;;;;76.30;35.05;;;;;;;8.26;61.40;100165.34;5091550;28;20089;-48
2022/01/30 09:27:32;;;;;;;62.50;32.13;;;;;;;8.43;60.99;100166.38;5091503;28;20020;-48
2022/01/30 09:29:58;;;;;;;61.60;32.80;;;;;;;8.50;60.25;100169.19;5091529;28;20440;-48
2022/01/30 09:32:24;;;;;;;62.33;33.70;;;;;;;8.49;59.97;100170.16;5091466;28;20432;-48
2022/01/30 09:34:50;;;;;;;65.15;33.03;;;;;;;8.48;60.65;100161.50;5091478;28;20020;-49
2022/01/30 09:37:17;;;;;;;61.95;31.60;;;;;;;8.60;60.19;100156.84;5091402;28;20024;-49
2022/01/30 09:39:44;;;;;;;61.30;33.40;;;;;;;8.65;59.95;100154.59;5091463;28;20566;-49
2022/01/30 09:42:10;;;;;;;60.28;31.20;;;;;;;8.79;60.53;100159.31;5093390;28;20040;-48
2022/01/30 09:44:39;;;;;;;58.65;32.00;;;;;;;8.90;59.47;100158.22;5095271;28;20374;-49
2022/01/30 09:47:17;;;;;;;67.60;32.72;;;;;;;8.83;59.90;100159.78;5093780;28;20020;-48
2022/01/30 09:49:49;;;;;;;74.20;33.28;;;;;;;8.73;59.96;100159.91;5095249;28;20024;-48
2022/01/30 09:52:15;;;;;;;62.10;31.77;;;;;;;8.71;60.01;100161.84;5093730;28;20930;-49
2022/01/30 09:54:41;;;;;;;65.88;34.95;;;;;;;8.76;59.89;100158.78;5093781;28;20032;-49
2022/01/30 09:57:07;;;;;;;60.80;32.45;;;;;;;8.93;60.33;100159.72;5094938;28;20032;-48
2022/01/30 09:59:33;;;;;;;68.10;31.83;;;;;;;9.13;59.56;100165.56;5094974;28;20024;-48
2022/01/30 10:02:03;;;;;;;59.58;32.67;;;;;;;9.16;59.29;100147.75;5094892;28;20047;-49
2022/01/30 10:04:30;;;;;;;59.33;31.38;;;;;;;9.27;58.99;100146.66;5094987;28;20024;-48
2022/01/30 10:07:10;;;;;;;60.92;31.90;;;;;;;9.24;58.90;100148.78;5094782;28;20031;-48
2022/01/30 10:09:42;;;;;;;62.10;32.03;;;;;;;9.25;59.33;100151.22;5094873;28;20031;-49
2022/01/30 10:12:19;;;;;;;64.80;33.55;;;;;;;9.18;59.50;100143.19;5093389;28;20044;-48
2022/01/30 10:15:07;;;;;;;66.20;32.85;;;;;;;9.11;59.99;100146.56;5094809;28;20021;-49
2022/01/30 10:17:35;;;;;;;66.35;33.13;;;;;;;9.12;59.49;100148.22;5094723;28;20032;-50
2022/01/30 10:20:06;;;;;;;73.45;32.50;;;;;;;9.04;60.09;100143.75;5094569;28;20105;-49
2022/01/30 10:22:34;;;;;;;52.53;28.88;;;;;;;8.87;60.60;100148.03;5093328;28;20035;-49
2022/01/30 10:24:59;;;;;;;57.33;29.42;;;;;;;8.99;60.85;100141.59;5094455;28;20024;-49
2022/01/30 10:27:28;;;;;;;62.83;33.35;;;;;;;8.99;59.84;100141.59;5094345;28;20417;-48
2022/01/30 10:30:06;;;;;;;64.88;33.20;;;;;;;8.91;60.24;100136.28;5094365;28;20020;-49
2022/01/30 10:32:33;;;;;;;56.65;30.60;;;;;;;8.82;60.34;100142.47;5093059;28;20043;-49
2022/01/30 10:35:02;;;;;;;57.10;30.25;;;;;;;8.91;60.74;100138.91;5094320;28;20050;-49
2022/01/30 10:37:28;;;;;;;53.35;29.55;;;;;;;9.05;60.14;100128.84;5092959;28;20405;-49
2022/01/30 10:40:13;;;;;;;53.58;30.13;;;;;;;8.93;60.18;100134.38;5094180;28;20031;-49
2022/01/30 10:42:51;;;;;;;55.28;29.75;;;;;;;8.85;60.48;100126.44;5094013;28;20441;-50
2022/01/30 10:45:19;;;;;;;52.60;28.33;;;;;;;8.80;59.96;100132.13;5094107;28;20085;-48
2022/01/30 10:47:46;;;;;;;52.17;25.63;;;;;;;8.66;60.82;100130.06;5094055;28;20043;-49
2022/01/30 10:50:21;;;;;;;45.92;25.77;;;;;;;8.64;61.23;100118.13;5094011;28;20024;-49
2022/01/30 10:52:59;;;;;;;;;;;;;;;8.77;61.10;100118.53;5092244;28;20032;-49
2022/01/30 10:55:31;;;;;;;51.47;26.73;;;;;;;8.80;61.29;100115.63;5093875;28;19911;-49
2022/01/30 10:58:01;;;;;;;77.22;38.97;;;;;;;8.87;61.76;100118.44;5093877;28;20047;-49
2022/01/30 11:00:42;;;;;;;50.80;28.25;;;;;;;8.94;61.79;100106.38;5093819;28;20028;-49
2022/01/30 11:03:09;;;;;;;48.75;25.88;;;;;;;9.21;61.67;100105.38;5092504;28;20118;-49
2022/01/30 11:05:56;;;;;;;56.13;29.30;;;;;;;9.44;61.26;100100.41;5093704;28;20012;-49
2022/01/30 11:08:25;;;;;;;44.75;26.27;;;;;;;9.75;60.91;100095.41;5093587;28;20485;-49
2022/01/30 11:11:16;;;;;;;47.45;25.95;;;;;;;10.01;60.17;100084.00;5092259;28;20074;-49
2022/01/30 11:19:15;;;;;;;42.88;25.05;;;;;;;10.19;59.86;100076.81;5093509;28;20497;-49
2022/01/30 11:21:42;;;;;;;46.13;24.92;;;;;;;10.39;59.50;100071.25;5093387;28;20020;-48
2022/01/30 11:24:14;;;;;;;42.78;23.38;;;;;;;10.55;59.05;100068.63;5092072;28;20441;-49
2022/01/30 11:26:40;;;;;;;42.45;25.23;;;;;;;10.60;58.79;100076.00;5093343;28;20047;-49
2022/01/30 11:29:11;;;;;;;43.33;24.52;;;;;;;10.61;58.99;100069.78;5091800;28;20393;-50
2022/01/30 11:31:37;;;;;;;43.53;24.20;;;;;;;10.70;58.82;100067.94;5093167;28;20020;-49
2022/01/30 11:34:04;;;;;;;45.45;23.60;;;;;;;10.70;58.38;100060.06;5093183;28;20020;-49
2022/01/30 11:36:37;;;;;;;51.10;25.45;;;;;;;10.59;58.14;100043.69;5093564;28;20028;-49
2022/01/30 11:39:04;;;;;;;46.35;25.70;;;;;;;10.50;58.72;100047.31;5093183;28;20588;-50
2022/01/30 11:41:31;;;;;;;43.50;25.48;;;;;;;10.66;58.76;100035.13;5092831;28;20016;-50
2022/01/30 11:44:18;;;;;;;47.78;25.90;;;;;;;10.67;58.21;100029.72;5092839;28;20036;-49
2022/01/30 11:46:57;;;;;;;45.33;25.27;;;;;;;10.59;58.49;100033.19;5092860;28;20185;-50
2022/01/30 11:49:37;;;;;;;50.78;27.83;;;;;;;10.72;58.48;100023.97;5092865;28;20028;-50
2022/01/30 11:52:04;;;;;;;45.78;26.20;;;;;;;10.64;57.98;100022.16;5092837;28;20529;-49
2022/01/30 11:54:35;;;;;;;45.22;26.85;;;;;;;10.37;57.98;100023.38;5092792;28;20027;-50
2022/01/30 11:57:03;;;;;;;44.58;25.52;;;;;;;10.16;59.13;100029.06;5091390;28;20028;-49
2022/01/30 11:59:39;;;;;;;43.58;25.20;;;;;;;10.29;59.53;100020.72;5092958;28;20078;-49
2022/01/30 12:02:27;;;;;;;45.13;26.13;;;;;;;10.47;58.82;100008.28;5091385;28;20123;-50
2022/01/30 12:04:54;;;;;;;45.78;23.60;;;;;;;10.54;58.58;100004.00;5092515;28;20489;-49
2022/01/30 12:07:37;;;;;;;45.78;27.13;;;;;;;10.59;58.52;99999.06;5092519;28;20494;-50
2022/01/30 12:10:29;;;;;;;44.70;26.38;;;;;;;10.69;57.96;99996.25;5092554;28;20028;-49
2022/01/30 12:13:03;;;;;;;41.78;23.55;;;;;;;10.78;58.00;99995.25;5091184;28;20027;-50
2022/01/30 12:15:38;;;;;;;44.72;26.02;;;;;;;10.85;57.65;99984.88;5092516;28;20035;-50
2022/01/30 12:18:08;;;;;;;41.47;22.42;;;;;;;10.73;57.56;99983.59;5092360;28;20556;-49